Time;durP1;ratioP1;P1;durP2;ratioP2;P2;SDS_P1;SDS_P2;PMS_P1;PMS_P2;Temp;Humidity;BMP_temperature;BMP_pressure;BME280_temperature;BME280_humidity;BME280_pressure;Samples;Min_cycle;Max_cycle;Signal;HPM_P1;HPM_P2
2022/01/26 00:05:43;;;;;;;15.03;9.43;;;3.40;99.90;;;4.23;100.00;-19870.78;5009748;28;20223;-70
2022/01/26 00:06:31;;;;;;;18.20;10.43;;;3.40;99.90;;;4.15;100.00;-19868.03;5009922;28;20598;-70
2022/01/26 00:09:00;;;;;;;15.03;9.90;;;3.30;99.90;;;4.11;100.00;-19866.84;5010239;28;20202;-69
2022/01/26 00:11:31;;;;;;;17.07;9.97;;;3.30;99.90;;;4.18;100.00;-19869.22;5010300;28;20232;-70
2022/01/26 00:14:00;;;;;;;16.37;10.57;;;3.30;99.90;;;4.14;100.00;-19867.69;5010242;28;20284;-69
2022/01/26 00:16:36;;;;;;;17.60;9.87;;;3.30;99.90;;;4.12;100.00;-19867.19;5023676;28;20302;-69
2022/01/26 00:19:06;;;;;;;14.20;9.57;;;3.30;99.90;;;4.16;100.00;-19868.38;5030632;28;20223;-70
2022/01/26 00:21:39;;;;;;;18.60;9.83;;;3.30;99.90;;;4.04;100.00;-19864.28;5030615;28;20634;-71
2022/01/26 00:24:23;;;;;;;16.07;9.63;;;3.30;99.90;;;4.07;100.00;-19865.47;5030487;28;20213;-68
2022/01/26 00:27:08;;;;;;;16.00;9.30;;;3.30;99.90;;;4.24;100.00;-19871.13;5030921;28;20187;-70
2022/01/26 00:29:39;;;;;;;17.30;10.37;;;3.30;99.90;;;4.29;100.00;-19873.00;5010508;28;20297;-71
2022/01/26 00:40:34;;;;;;;14.40;9.10;;;3.40;99.90;;;4.21;100.00;-19870.09;5029964;28;20308;-70
2022/01/26 00:43:14;;;;;;;15.03;9.03;;;3.40;99.90;;;4.30;100.00;-19873.16;5029819;28;20641;-69
2022/01/26 00:45:43;;;;;;;15.53;8.97;;;3.40;99.90;;;4.13;100.00;-19867.34;5030522;28;20255;-71
2022/01/26 00:48:19;;;;;;;13.20;8.67;;;3.30;99.90;;;3.99;100.00;-19862.56;5034163;28;20215;-70
2022/01/26 00:50:51;;;;;;;13.40;8.30;;;3.30;99.90;;;4.00;100.00;-19862.91;5034545;28;20186;-72
2022/01/26 00:53:22;;;;;;;13.93;8.83;;;3.30;99.90;;;3.95;100.00;-19861.38;5034240;28;20218;-70
2022/01/26 00:55:51;;;;;;;12.70;8.10;;;3.30;99.90;;;4.13;100.00;-19867.34;5033596;28;20232;-70
2022/01/26 00:58:20;;;;;;;13.83;8.30;;;3.20;99.90;;;4.07;100.00;-19865.31;5033650;28;20224;-70
2022/01/26 01:00:49;;;;;;;12.20;8.40;;;3.30;99.90;;;4.25;100.00;-19871.63;5033918;28;20225;-69
2022/01/26 01:03:18;;;;;;;14.97;8.57;;;3.30;99.90;;;4.17;100.00;-19868.88;5033630;28;20228;-70
2022/01/26 01:05:53;;;;;;;13.33;8.10;;;3.30;99.90;;;4.13;100.00;-19867.34;5034292;28;20666;-72
2022/01/26 01:08:23;;;;;;;15.77;9.00;;;3.30;99.90;;;4.06;100.00;-19865.13;5014159;28;20629;-69
2022/01/26 01:10:53;;;;;;;11.80;7.50;;;3.30;99.90;;;4.10;100.00;-19866.50;5025696;28;20247;-70
2022/01/26 01:13:32;;;;;;;16.53;8.77;;;3.30;99.90;;;4.07;100.00;-19865.31;5013687;28;20260;-69
2022/01/26 01:16:02;;;;;;;12.30;8.23;;;3.20;99.90;;;4.01;100.00;-19863.41;5019412;28;20257;-68
2022/01/26 01:18:39;;;;;;;16.20;9.00;;;3.20;99.90;;;4.07;100.00;-19865.47;5013641;28;20231;-69
2022/01/26 01:26:58;;;;;;;17.20;8.87;;;3.20;99.90;;;3.93;100.00;-19860.69;5013976;28;20260;-71
2022/01/26 01:29:30;;;;;;;13.23;8.27;;;3.20;99.90;;;3.96;100.00;-19861.72;5013857;28;20256;-72
2022/01/26 01:32:01;;;;;;;13.80;8.97;;;3.20;99.90;;;3.86;100.00;-19858.28;5013506;28;20307;-72
2022/01/26 01:34:37;;;;;;;13.20;8.77;;;3.10;99.90;;;3.97;100.00;-19862.06;5013687;28;20242;-71
2022/01/26 01:37:08;;;;;;;17.80;9.37;;;3.10;99.90;;;4.08;100.00;-19865.81;5013776;28;20263;-71
2022/01/26 01:39:38;;;;;;;14.60;8.33;;;3.20;99.90;;;4.03;100.00;-19863.94;5013377;28;20254;-69
2022/01/26 01:42:09;;;;;;;15.37;9.27;;;3.20;99.90;;;3.88;100.00;-19858.97;5012756;28;20774;-72
2022/01/26 01:44:39;;;;;;;13.90;8.93;;;3.20;99.90;;;3.80;100.00;-19856.25;5013773;28;20186;-69
2022/01/26 01:47:08;;;;;;;13.33;8.73;;;3.20;99.90;;;3.88;100.00;-19858.81;5013255;28;20227;-62
2022/01/26 01:49:37;;;;;;;16.60;9.93;;;3.10;99.90;;;3.85;100.00;-19857.94;5013098;28;20279;-64
2022/01/26 01:52:12;;;;;;;14.50;9.07;;;3.10;99.90;;;3.79;100.00;-19855.72;5013046;28;20694;-62
2022/01/26 01:54:44;;;;;;;16.10;9.30;;;3.10;99.90;;;3.93;100.00;-19860.50;5012760;28;20345;-65
2022/01/26 01:57:20;;;;;;;15.93;8.77;;;3.20;99.90;;;3.94;100.00;-19860.84;5012351;28;20285;-63
2022/01/26 01:59:50;;;;;;;15.20;8.93;;;3.10;99.90;;;3.84;100.00;-19857.59;5013058;28;20231;-64
2022/01/26 02:02:18;;;;;;;16.40;9.43;;;3.20;99.90;;;3.88;100.00;-19858.97;5012600;28;20636;-63
2022/01/26 02:04:47;;;;;;;15.37;9.47;;;3.20;99.90;;;3.93;100.00;-19860.69;5012689;28;20266;-63
2022/01/26 02:07:15;;;;;;;15.60;9.67;;;3.10;99.90;;;3.92;100.00;-19860.34;5012351;28;20252;-62
2022/01/26 02:09:43;;;;;;;16.57;9.77;;;3.10;99.90;;;4.04;100.00;-19864.28;5012618;28;20275;-61
2022/01/26 02:12:20;;;;;;;18.40;10.43;;;3.20;99.90;;;4.13;100.00;-19867.34;5012415;28;20735;-64
2022/01/26 02:15:01;;;;;;;15.87;9.97;;;3.20;99.90;;;4.12;100.00;-19867.19;5012398;28;20649;-63
2022/01/26 02:17:48;;;;;;;21.80;10.77;;;3.20;99.90;;;4.09;100.00;-19866.16;5012956;28;20307;-61
2022/01/26 02:20:46;;;;;;;18.60;11.00;;;3.20;99.90;;;4.04;100.00;-19864.44;5012398;28;20316;-62
2022/01/26 02:51:22;;;;;;;22.00;11.33;;;3.10;99.90;;;3.78;100.00;-19855.56;5031796;28;20276;-63
2022/01/26 02:56:50;;;;;;;21.20;11.70;;;3.00;99.90;;;4.05;100.00;-19864.63;5013869;28;20231;-64
2022/01/26 03:02:03;;;;;;;28.00;13.97;;;3.10;99.90;;;3.79;100.00;-19855.72;5030098;28;20326;-61
2022/01/26 03:04:39;;;;;;;25.47;13.07;;;3.10;99.90;;;3.79;100.00;-19855.72;5017701;28;20389;-61
2022/01/26 03:07:12;;;;;;;28.60;14.73;;;3.10;99.90;;;3.76;100.00;-19854.88;5011467;28;20307;-63
2022/01/26 03:09:46;;;;;;;34.27;16.50;;;3.10;99.90;;;3.75;100.00;-19854.53;5004539;28;20253;-63
2022/01/26 03:12:25;;;;;;;32.60;15.70;;;3.00;99.90;;;3.94;100.00;-19860.84;4991388;28;20246;-64
2022/01/26 03:14:57;;;;;;;29.77;14.80;;;3.10;99.90;;;3.73;100.00;-19854.03;4997878;28;20211;-61
2022/01/26 03:17:40;;;;;;;34.53;14.87;;;3.00;99.90;;;3.84;100.00;-19857.44;5031526;28;20268;-62
2022/01/26 03:20:13;;;;;;;35.60;16.07;;;3.00;99.90;;;3.78;100.00;-19855.38;4994479;28;20320;-62
2022/01/26 03:28:20;;;;;;;34.73;15.47;;;3.10;99.90;;;3.86;100.00;-19858.28;5011359;28;20719;-62
2022/01/26 03:33:53;;;;;;;35.80;15.53;;;3.00;99.90;;;3.83;100.00;-19857.09;5009419;28;20222;-62
2022/01/26 03:36:25;;;;;;;32.40;15.00;;;3.00;99.90;;;3.86;100.00;-19858.28;5011026;28;20228;-62
2022/01/26 03:39:00;;;;;;;31.03;15.07;;;3.00;99.90;;;3.84;100.00;-19857.44;5011763;28;20286;-62
2022/01/26 03:41:38;;;;;;;33.90;15.50;;;3.00;99.90;;;3.80;100.00;-19856.25;5010497;28;20227;-62
2022/01/26 03:44:07;;;;;;;31.63;15.83;;;3.10;99.90;;;3.80;100.00;-19856.06;5010769;28;20270;-63
2022/01/26 03:46:36;;;;;;;32.50;14.43;;;3.00;99.90;;;3.90;100.00;-19859.50;5011187;28;20611;-62
2022/01/26 03:49:05;;;;;;;31.93;15.03;;;3.00;99.90;;;3.86;100.00;-19858.28;5010857;28;20315;-63
2022/01/26 03:51:35;;;;;;;29.67;14.27;;;3.00;99.90;;;3.87;100.00;-19858.63;5011147;28;20232;-62
2022/01/26 03:54:05;;;;;;;26.47;13.83;;;3.00;99.90;;;3.68;100.00;-19852.13;5011000;28;20640;-61
2022/01/26 03:56:35;;;;;;;26.50;12.63;;;3.00;99.90;;;3.83;100.00;-19857.25;5010602;28;20242;-62
2022/01/26 03:59:05;;;;;;;29.30;13.90;;;3.00;99.90;;;3.86;100.00;-19858.28;5010545;28;20396;-63
2022/01/26 04:01:34;;;;;;;25.97;14.03;;;3.00;99.90;;;3.95;100.00;-19861.38;4997077;28;20265;-61
2022/01/26 04:04:03;;;;;;;29.27;13.40;;;3.00;99.90;;;3.91;100.00;-19859.84;4990921;28;20758;-61
2022/01/26 04:06:33;;;;;;;21.97;12.43;;;3.00;99.90;;;3.81;100.00;-19856.59;4991099;28;20315;-62
2022/01/26 04:09:05;;;;;;;27.10;13.40;;;3.00;99.90;;;3.87;100.00;-19858.63;4990972;28;20234;-63
2022/01/26 04:11:36;;;;;;;28.87;13.30;;;3.00;99.90;;;3.77;100.00;-19855.22;4990820;28;20245;-62
2022/01/26 04:14:09;;;;;;;23.97;12.60;;;3.00;99.90;;;3.90;100.00;-19859.50;4990743;28;20253;-62
2022/01/26 04:16:40;;;;;;;26.20;12.90;;;3.10;99.90;;;3.79;100.00;-19855.72;5004804;28;20758;-62
2022/01/26 04:19:10;;;;;;;25.60;12.50;;;3.00;99.90;;;3.91;100.00;-19860.00;5011161;28;20318;-62
2022/01/26 04:21:55;;;;;;;28.63;13.70;;;3.00;99.90;;;3.79;100.00;-19855.72;5014058;28;20649;-62
2022/01/26 04:24:27;;;;;;;29.63;13.53;;;3.00;99.90;;;3.72;100.00;-19853.69;5014463;28;20241;-62
2022/01/26 04:27:01;;;;;;;25.70;12.97;;;3.00;99.90;;;3.84;100.00;-19857.44;5014001;28;20595;-63
2022/01/26 04:29:31;;;;;;;26.37;12.07;;;3.00;99.90;;;3.78;100.00;-19855.38;5014774;28;20231;-62
2022/01/26 04:32:02;;;;;;;25.80;13.43;;;3.00;99.90;;;3.83;100.00;-19857.25;5013721;28;20319;-62
2022/01/26 04:34:32;;;;;;;29.10;13.97;;;3.00;99.90;;;3.97;100.00;-19862.06;5014286;28;20298;-63
2022/01/26 04:37:08;;;;;;;27.23;12.33;;;3.00;99.90;;;3.75;100.00;-19854.53;5013901;28;20231;-62
2022/01/26 04:39:41;;;;;;;22.17;12.20;;;3.00;99.90;;;3.68;100.00;-19852.31;5014131;28;20246;-62
2022/01/26 04:42:15;;;;;;;24.03;12.57;;;3.00;99.90;;;3.73;100.00;-19854.03;5013453;28;20317;-63
2022/01/26 04:44:51;;;;;;;23.80;12.83;;;3.00;99.90;;;3.81;100.00;-19856.59;5014689;28;20276;-62
2022/01/26 04:47:19;;;;;;;24.77;12.87;;;3.00;99.90;;;3.94;100.00;-19861.03;5033815;28;20288;-61
2022/01/26 04:49:47;;;;;;;31.93;14.27;;;3.00;99.90;;;3.90;100.00;-19859.66;5033458;28;20231;-62
2022/01/26 04:52:15;;;;;;;26.87;12.73;;;3.00;99.90;;;3.94;100.00;-19861.03;5033575;28;20591;-62
2022/01/26 04:54:43;;;;;;;26.90;12.87;;;3.00;99.90;;;3.74;100.00;-19854.19;5033392;28;20225;-62
2022/01/26 04:57:13;;;;;;;25.60;13.47;;;3.00;99.90;;;3.93;100.00;-19860.50;5032557;28;20253;-62
2022/01/26 04:59:41;;;;;;;32.47;14.77;;;3.00;99.90;;;3.74;100.00;-19854.34;5034097;28;20272;-62
2022/01/26 05:02:09;;;;;;;70.07;28.07;;;3.00;99.90;;;3.73;100.00;-19854.03;5032964;28;20337;-61
2022/01/26 05:04:37;;;;;;;116.40;38.77;;;3.00;99.90;;;3.82;100.00;-19856.94;5033321;28;20229;-62
2022/01/26 05:07:05;;;;;;;45.37;18.97;;;3.10;99.90;;;3.74;100.00;-19854.19;5033035;28;20661;-61
2022/01/26 05:09:34;;;;;;;38.13;16.13;;;3.00;99.90;;;3.78;100.00;-19855.56;5033270;28;20224;-62
2022/01/26 05:12:02;;;;;;;33.33;14.93;;;3.00;99.90;;;3.82;100.00;-19856.75;5032823;28;20246;-62
2022/01/26 05:14:32;;;;;;;27.60;13.37;;;3.00;99.90;;;3.69;100.00;-19852.66;5033450;28;20557;-63
2022/01/26 05:17:00;;;;;;;27.33;13.07;;;3.00;99.90;;;3.76;100.00;-19854.88;5032683;28;20318;-62
2022/01/26 05:19:28;;;;;;;26.47;12.80;;;3.00;99.90;;;3.80;100.00;-19856.25;5032894;28;20256;-61
2022/01/26 05:21:56;;;;;;;23.60;12.37;;;2.90;99.90;;;3.72;100.00;-19853.69;5032720;28;20737;-62
2022/01/26 05:24:24;;;;;;;24.70;11.93;;;3.00;99.90;;;3.66;100.00;-19851.63;5033033;28;20223;-62
2022/01/26 05:26:52;;;;;;;28.30;12.67;;;3.00;99.90;;;3.59;100.00;-19849.22;5032943;28;20294;-61
2022/01/26 05:29:20;;;;;;;26.43;12.50;;;2.90;99.90;;;3.79;100.00;-19855.72;5033103;28;20313;-62
2022/01/26 05:31:49;;;;;;;22.93;11.93;;;3.00;99.90;;;3.80;100.00;-19856.06;5031835;28;20782;-61
2022/01/26 05:34:18;;;;;;;21.70;11.13;;;3.00;99.90;;;3.76;100.00;-19854.88;5032762;28;20315;-61
2022/01/26 05:36:46;;;;;;;24.37;11.83;;;3.00;99.90;;;3.87;100.00;-19858.63;5032740;28;20306;-62
2022/01/26 05:39:14;;;;;;;22.60;11.33;;;3.00;99.90;;;3.73;100.00;-19854.03;5032915;28;20268;-62
2022/01/26 05:41:42;;;;;;;21.23;11.13;;;3.00;99.90;;;3.83;100.00;-19857.25;5032960;28;20213;-63
2022/01/26 05:44:10;;;;;;;20.77;11.10;;;3.00;99.90;;;3.86;100.00;-19858.13;5032909;28;20306;-63
2022/01/26 05:46:42;;;;;;;19.93;10.53;;;3.00;99.90;;;3.81;100.00;-19856.41;5033124;28;20306;-62
2022/01/26 05:49:13;;;;;;;22.37;10.97;;;3.00;99.90;;;3.77;100.00;-19855.03;5033208;28;20230;-62
2022/01/26 05:51:45;;;;;;;21.00;10.67;;;3.00;99.90;;;3.68;100.00;-19852.13;5032807;28;20307;-62
2022/01/26 05:54:13;;;;;;;20.03;10.53;;;2.90;99.90;;;3.98;100.00;-19862.22;5052908;28;20204;-63
2022/01/26 05:56:42;;;;;;;20.13;9.70;;;3.00;99.90;;;3.79;100.00;-19855.91;5053068;28;20251;-62
2022/01/26 05:59:10;;;;;;;20.53;10.20;;;3.00;99.90;;;3.72;100.00;-19853.69;5053003;28;20254;-62
2022/01/26 06:01:38;;;;;;;17.90;10.23;;;3.00;99.90;;;3.64;100.00;-19850.94;5053078;28;20259;-62
2022/01/26 06:04:07;;;;;;;18.00;10.17;;;2.90;99.90;;;3.54;100.00;-19847.34;5053401;28;20234;-62
2022/01/26 06:06:36;;;;;;;19.97;10.13;;;2.90;99.90;;;3.68;100.00;-19852.13;5053336;28;20523;-62
2022/01/26 06:09:09;;;;;;;19.60;10.23;;;2.90;99.90;;;3.53;100.00;-19847.19;5013002;28;20235;-63
2022/01/26 06:11:37;;;;;;;18.27;9.43;;;2.90;99.90;;;3.62;100.00;-19850.09;5013235;28;20233;-63
2022/01/26 06:14:06;;;;;;;19.73;9.83;;;2.90;99.90;;;3.69;100.00;-19852.66;5012968;28;20222;-63
2022/01/26 06:16:34;;;;;;;18.43;10.47;;;2.90;99.90;;;3.60;100.00;-19849.41;5027221;28;20310;-63
2022/01/26 06:19:02;;;;;;;17.90;10.03;;;2.90;99.90;;;3.77;100.00;-19855.22;5032823;28;20257;-62
2022/01/26 06:21:30;;;;;;;18.50;9.83;;;2.90;99.90;;;3.76;100.00;-19854.88;5033140;28;20313;-63
2022/01/26 06:23:59;;;;;;;20.13;10.80;;;2.90;99.90;;;3.73;100.00;-19853.84;5032527;28;20612;-62
2022/01/26 06:26:27;;;;;;;20.10;9.83;;;2.90;99.90;;;3.76;100.00;-19854.88;5031694;28;20286;-63
2022/01/26 06:28:55;;;;;;;22.03;9.30;;;2.90;99.90;;;3.90;100.00;-19859.66;5031671;28;20224;-62
2022/01/26 06:31:28;;;;;;;19.13;9.97;;;2.90;99.90;;;3.66;100.00;-19851.63;5031507;28;20239;-62
2022/01/26 06:34:01;;;;;;;19.90;10.80;;;2.90;99.90;;;3.81;100.00;-19856.59;5031626;28;20245;-62
2022/01/26 06:36:30;;;;;;;18.70;9.40;;;2.80;99.90;;;3.65;100.00;-19851.13;5031591;28;20731;-61
2022/01/26 06:38:59;;;;;;;19.50;10.47;;;2.80;99.90;;;3.69;100.00;-19852.47;5031371;28;20222;-62
2022/01/26 06:41:28;;;;;;;20.53;10.77;;;2.80;99.90;;;3.62;100.00;-19850.25;5031697;28;20574;-61
2022/01/26 06:44:02;;;;;;;19.10;10.47;;;2.80;99.90;;;3.61;100.00;-19849.75;5030581;28;20314;-61
2022/01/26 06:46:40;;;;;;;24.53;12.40;;;2.80;99.90;;;3.59;100.00;-19849.06;5031894;28;20249;-61
2022/01/26 06:51:50;;;;;;;23.07;11.80;;;2.80;99.90;;;3.74;100.00;-19854.34;5031362;28;20246;-60
2022/01/26 06:54:20;;;;;;;19.73;10.20;;;2.80;99.90;;;3.56;100.00;-19848.03;5031335;28;20572;-61
2022/01/26 06:56:49;;;;;;;21.47;11.37;;;2.80;99.90;;;3.52;100.00;-19846.66;5032048;28;20229;-62
2022/01/26 06:59:21;;;;;;;22.63;11.33;;;2.80;99.90;;;3.58;100.00;-19848.72;5011842;28;20262;-63
2022/01/26 07:01:50;;;;;;;20.53;10.70;;;2.80;99.90;;;3.64;100.00;-19850.78;5027665;28;20224;-61
2022/01/26 07:04:18;;;;;;;20.40;11.73;;;2.80;99.90;;;3.62;100.00;-19850.09;5031283;28;20223;-62
2022/01/26 07:06:47;;;;;;;22.73;12.17;;;2.80;99.90;;;3.72;100.00;-19853.50;5031312;28;20259;-61
2022/01/26 07:09:17;;;;;;;21.97;11.67;;;2.80;99.90;;;3.90;100.00;-19859.66;5031352;28;20229;-61
2022/01/26 07:11:47;;;;;;;24.67;12.17;;;2.80;99.90;;;3.69;100.00;-19852.47;5031493;28;20203;-63
2022/01/26 07:14:26;;;;;;;23.57;11.90;;;2.80;99.90;;;3.43;100.00;-19843.59;5031634;28;20274;-62
2022/01/26 07:20:03;;;;;;;22.17;12.57;;;2.80;99.90;;;3.49;100.00;-19845.81;5011358;28;20230;-63
2022/01/26 07:22:32;;;;;;;23.43;12.13;;;2.80;99.90;;;3.59;100.00;-19849.06;5011680;28;20552;-62
2022/01/26 07:25:00;;;;;;;22.93;11.80;;;2.80;99.90;;;3.69;100.00;-19852.66;5011153;28;20225;-62
2022/01/26 07:27:29;;;;;;;19.87;10.93;;;2.80;99.90;;;3.81;100.00;-19856.59;5011259;28;20284;-62
2022/01/26 07:29:59;;;;;;;22.30;12.23;;;2.80;99.90;;;3.67;100.00;-19851.97;5011364;28;20718;-62
2022/01/26 07:32:29;;;;;;;22.27;11.37;;;2.80;99.90;;;3.95;100.00;-19861.19;5011938;28;20290;-62
2022/01/26 07:34:57;;;;;;;22.57;11.23;;;2.90;99.90;;;3.74;100.00;-19854.34;5010893;28;20233;-60
2022/01/26 07:37:25;;;;;;;21.73;11.17;;;2.90;99.90;;;3.63;100.00;-19850.44;5011089;28;20318;-61
2022/01/26 07:40:04;;;;;;;21.17;11.97;;;2.90;99.90;;;3.83;100.00;-19857.09;5010782;28;20305;-61
2022/01/26 07:42:34;;;;;;;21.40;12.17;;;3.00;99.90;;;3.78;100.00;-19855.56;5008968;28;20229;-60
2022/01/26 07:45:05;;;;;;;19.30;10.80;;;3.00;99.90;;;4.06;100.00;-19865.13;5017792;28;20239;-62
2022/01/26 07:47:33;;;;;;;19.17;11.60;;;3.10;99.90;;;3.95;100.00;-19861.38;5031347;28;20296;-62
2022/01/26 07:50:06;;;;;;;24.60;11.70;;;3.00;99.90;;;4.01;100.00;-19863.25;5048225;28;20230;-61
2022/01/26 07:52:38;;;;;;;22.30;11.73;;;3.00;99.90;;;3.84;100.00;-19857.59;5033616;28;20252;-62
2022/01/26 07:55:09;;;;;;;19.40;10.97;;;3.00;99.90;;;3.87;100.00;-19858.47;5030630;28;20261;-61
2022/01/26 07:57:38;;;;;;;19.83;10.30;;;3.00;99.90;;;3.98;100.00;-19862.22;5032582;28;20264;-62
2022/01/26 08:00:09;;;;;;;19.57;10.17;;;3.00;99.90;;;3.96;100.00;-19861.53;5022740;28;20667;-59
2022/01/26 08:02:37;;;;;;;19.60;10.83;;;3.10;99.90;;;4.08;100.00;-19865.63;5014869;28;20234;-65
2022/01/26 08:05:06;;;;;;;19.47;11.30;;;3.20;99.90;;;4.22;100.00;-19870.44;5009414;28;20262;-64
2022/01/26 08:07:35;;;;;;;19.13;10.40;;;3.20;99.90;;;4.33;100.00;-19874.19;5007868;28;20258;-64
2022/01/26 08:10:06;;;;;;;20.60;10.90;;;3.20;99.90;;;4.30;100.00;-19873.16;5007800;28;20311;-64
2022/01/26 08:12:35;;;;;;;21.03;11.27;;;3.40;99.90;;;4.51;100.00;-19880.50;5007897;28;20308;-63
2022/01/26 08:15:25;;;;;;;23.10;11.23;;;3.40;99.90;;;4.63;100.00;-19884.44;5007969;28;20229;-63
2022/01/26 08:17:55;;;;;;;17.83;10.33;;;3.50;99.90;;;4.60;100.00;-19883.41;5008168;28;20231;-61
2022/01/26 08:20:23;;;;;;;16.93;10.20;;;3.50;99.90;;;4.60;100.00;-19883.41;5008388;28;20258;-63
2022/01/26 08:22:52;;;;;;;18.20;10.57;;;3.60;99.90;;;4.48;100.00;-19879.47;5007579;28;20266;-62
2022/01/26 08:25:22;;;;;;;20.17;11.30;;;3.50;99.90;;;4.59;100.00;-19883.25;5007483;28;20618;-61
2022/01/26 08:27:57;;;;;;;19.60;10.87;;;3.50;99.90;;;4.35;100.00;-19874.88;5007565;28;20236;-64
2022/01/26 08:30:28;;;;;;;19.73;10.33;;;3.40;99.90;;;4.26;100.00;-19871.78;5007539;28;20275;-64
2022/01/26 08:32:56;;;;;;;19.43;10.73;;;3.30;99.90;;;4.38;100.00;-19876.06;5008168;28;20232;-62
2022/01/26 08:35:25;;;;;;;19.57;10.03;;;3.30;99.90;;;4.10;100.00;-19866.31;5007977;28;20213;-62
2022/01/26 08:37:53;;;;;;;20.47;11.20;;;3.30;99.90;;;4.13;100.00;-19867.34;5007226;28;20876;-63
2022/01/26 08:40:21;;;;;;;22.00;10.67;;;3.20;99.90;;;4.26;100.00;-19871.97;5007232;28;20260;-63
2022/01/26 08:42:49;;;;;;;18.70;10.27;;;3.20;99.90;;;4.26;100.00;-19871.97;5006988;28;20648;-62
2022/01/26 08:45:22;;;;;;;19.40;10.67;;;3.20;99.90;;;4.06;100.00;-19865.13;5007433;28;20273;-62
2022/01/26 08:47:52;;;;;;;17.53;9.53;;;3.20;99.90;;;4.07;100.00;-19865.47;5008186;28;20242;-61
2022/01/26 08:50:20;;;;;;;17.60;9.67;;;3.20;99.90;;;4.02;100.00;-19863.59;5027514;28;20213;-66
2022/01/26 08:52:48;;;;;;;14.97;8.60;;;3.20;99.90;;;4.08;100.00;-19865.63;5027027;28;20229;-65
2022/01/26 08:55:17;;;;;;;19.53;9.90;;;3.20;99.90;;;4.27;100.00;-19872.31;5027017;28;20254;-61
2022/01/26 08:57:45;;;;;;;17.13;9.23;;;3.30;99.90;;;4.29;100.00;-19872.81;5026568;28;20276;-61
2022/01/26 09:00:16;;;;;;;16.03;9.10;;;3.30;99.90;;;4.19;100.00;-19869.41;5027118;28;20270;-63
2022/01/26 09:02:46;;;;;;;17.33;9.37;;;3.30;99.90;;;4.46;100.00;-19878.81;5027492;28;20236;-60
2022/01/26 09:05:17;;;;;;;15.47;9.37;;;3.40;99.90;;;4.63;100.00;-19884.44;5026828;28;20244;-61
2022/01/26 09:07:45;;;;;;;16.40;8.90;;;3.50;99.90;;;4.66;100.00;-19885.63;5030556;28;20229;-62
2022/01/26 09:10:13;;;;;;;15.80;8.67;;;3.60;99.90;;;4.68;100.00;-19886.16;5030791;28;20261;-61
2022/01/26 09:12:44;;;;;;;18.73;9.00;;;3.60;99.90;;;4.50;100.00;-19880.16;5030905;28;20748;-62
2022/01/26 09:15:14;;;;;;;16.13;9.23;;;3.60;99.90;;;4.50;100.00;-19880.16;5030653;28;20523;-62
2022/01/26 09:17:43;;;;;;;16.63;8.53;;;3.60;99.90;;;4.44;100.00;-19878.13;5030748;28;20240;-63
2022/01/26 09:20:14;;;;;;;16.83;8.80;;;3.50;99.90;;;4.49;100.00;-19879.66;5029856;28;20314;-62
2022/01/26 09:22:43;;;;;;;16.87;8.43;;;3.50;99.90;;;4.58;100.00;-19882.75;5030100;28;20305;-61
2022/01/26 09:25:11;;;;;;;16.63;8.23;;;3.60;99.90;;;4.64;100.00;-19884.78;5030088;28;20317;-58
2022/01/26 09:27:40;;;;;;;17.70;8.87;;;3.60;99.90;;;4.67;100.00;-19885.97;5029787;28;20277;-64
2022/01/26 09:30:10;;;;;;;13.90;8.03;;;3.60;99.90;;;4.47;100.00;-19879.16;5029515;28;20224;-60
2022/01/26 09:32:39;;;;;;;19.67;11.10;;;3.60;99.90;;;4.59;100.00;-19883.25;5029324;28;20493;-63
2022/01/26 09:35:10;;;;;;;16.67;9.30;;;3.50;99.90;;;4.46;100.00;-19878.63;5029129;28;20728;-62
2022/01/26 09:37:38;;;;;;;14.77;8.53;;;3.60;99.90;;;4.63;100.00;-19884.59;5029616;28;20278;-64
2022/01/26 09:40:09;;;;;;;86.90;51.83;;;3.50;99.90;;;4.70;100.00;-19886.84;5029647;28;20262;-70
2022/01/26 09:42:38;;;;;;;18.23;10.70;;;3.60;99.90;;;4.69;100.00;-19886.50;5029487;28;20255;-67
2022/01/26 09:45:08;;;;;;;16.67;8.83;;;3.60;99.90;;;4.70;100.00;-19886.84;5029810;28;20198;-69
2022/01/26 09:47:37;;;;;;;17.23;8.60;;;3.60;99.90;;;4.63;100.00;-19884.59;5030513;28;20201;-68
2022/01/26 09:50:25;;;;;;;15.83;8.10;;;3.60;99.90;;;4.56;100.00;-19882.06;5029680;28;20234;-67
2022/01/26 09:52:55;;;;;;;16.33;8.60;;;3.60;99.90;;;4.62;100.00;-19884.28;5029383;28;20224;-67
2022/01/26 09:55:26;;;;;;;14.67;8.37;;;3.60;99.90;;;4.46;100.00;-19878.63;5029296;28;20763;-59
2022/01/26 09:57:58;;;;;;;16.83;8.73;;;3.50;99.90;;;4.65;100.00;-19885.28;5029107;28;20256;-68
2022/01/26 10:00:27;;;;;;;14.40;8.03;;;3.50;99.90;;;4.54;100.00;-19881.53;5029056;28;20279;-69
2022/01/26 10:03:01;;;;;;;16.03;7.60;;;3.50;99.90;;;4.35;100.00;-19875.03;5029121;28;20214;-61
2022/01/26 10:05:41;;;;;;;16.40;7.77;;;3.50;99.90;;;4.37;100.00;-19875.56;5029885;28;20194;-67
2022/01/26 10:08:22;;;;;;;17.67;8.00;;;3.50;99.90;;;4.57;100.00;-19882.56;5029031;28;20260;-67
2022/01/26 10:17:18;;;;;;;16.33;6.97;;;3.40;99.90;;;4.27;100.00;-19872.31;5022437;28;20228;-67
2022/01/26 10:19:38;;;;;;;16.07;7.77;;;3.40;99.90;;;4.24;100.00;-19871.13;5028362;28;20322;-69
2022/01/26 10:22:08;;;;;;;17.40;8.40;;;3.40;99.90;;;4.26;100.00;-19871.78;5028544;28;20271;-68
2022/01/26 10:24:36;;;;;;;16.13;8.03;;;3.40;99.90;;;4.22;100.00;-19870.59;5028882;28;20224;-68
2022/01/26 10:27:08;;;;;;;16.10;7.97;;;3.40;99.90;;;4.38;100.00;-19876.06;5028621;28;20239;-70
2022/01/26 10:29:36;;;;;;;13.43;7.57;;;3.40;99.90;;;4.33;100.00;-19874.34;5029235;28;20620;-68
2022/01/26 10:32:13;;;;;;;13.57;7.70;;;3.40;99.90;;;4.38;100.00;-19876.06;5028267;28;20580;-69
2022/01/26 10:34:41;;;;;;;16.03;7.67;;;3.40;99.90;;;4.49;100.00;-19879.81;5013464;28;20729;-69
2022/01/26 10:37:10;;;;;;;14.70;7.87;;;3.40;99.90;;;4.21;100.00;-19870.25;5008400;28;20230;-70
2022/01/26 10:39:44;;;;;;;16.57;7.17;;;3.40;99.90;;;4.32;100.00;-19873.84;5008633;28;20307;-70
2022/01/26 10:42:19;;;;;;;13.60;7.10;;;3.40;99.90;;;4.38;100.00;-19875.91;5008046;28;20301;-70
2022/01/26 10:44:54;;;;;;;16.73;7.13;;;3.40;99.90;;;4.57;100.00;-19882.56;5008695;28;20619;-69
2022/01/26 10:47:31;;;;;;;12.27;6.43;;;3.40;99.90;;;4.42;100.00;-19877.25;4989094;28;20211;-68
2022/01/26 10:50:19;;;;;;;12.70;6.40;;;3.50;99.90;;;4.40;100.00;-19876.75;5005688;28;20712;-69
2022/01/26 10:52:54;;;;;;;17.37;7.60;;;3.50;99.90;;;4.61;100.00;-19883.94;5008349;28;20277;-67
2022/01/26 10:55:24;;;;;;;18.73;7.80;;;3.50;99.90;;;4.37;100.00;-19875.56;5008654;28;20229;-61
2022/01/26 10:57:54;;;;;;;16.73;8.00;;;3.40;99.90;;;4.38;100.00;-19875.91;5007959;28;20278;-61
2022/01/26 11:00:22;;;;;;;16.90;7.87;;;3.40;99.90;;;4.29;100.00;-19873.00;5007780;28;20601;-66
2022/01/26 11:03:11;;;;;;;19.73;8.67;;;3.40;99.90;;;4.44;100.00;-19878.13;5007981;28;20213;-68
2022/01/26 11:05:40;;;;;;;17.53;8.87;;;3.40;99.90;;;4.27;100.00;-19872.31;5008429;28;20210;-62
2022/01/26 11:08:12;;;;;;;14.53;7.60;;;3.40;99.90;;;4.13;100.00;-19867.53;5007881;28;20287;-60
2022/01/26 11:10:42;;;;;;;16.97;8.70;;;3.30;99.90;;;4.13;100.00;-19867.53;5007963;28;20246;-61
2022/01/26 11:13:11;;;;;;;20.60;10.20;;;3.30;99.90;;;4.29;100.00;-19872.81;5007609;28;20292;-60
2022/01/26 11:15:39;;;;;;;18.70;10.20;;;3.30;99.90;;;4.24;100.00;-19871.13;5008346;28;20221;-62
2022/01/26 11:18:12;;;;;;;19.23;10.47;;;3.30;99.90;;;4.30;100.00;-19873.34;5011024;28;20209;-63
2022/01/26 11:20:50;;;;;;;18.40;11.17;;;3.40;99.90;;;4.27;100.00;-19872.31;5011036;28;20894;-64
2022/01/26 11:23:21;;;;;;;21.67;10.50;;;3.30;99.90;;;4.20;100.00;-19869.91;5010667;28;20233;-63
2022/01/26 11:25:50;;;;;;;20.83;10.27;;;3.30;99.90;;;4.16;100.00;-19868.53;5010771;28;20239;-63
2022/01/26 11:28:25;;;;;;;22.33;13.27;;;3.30;99.90;;;4.24;100.00;-19871.28;5003959;28;20537;-63
2022/01/26 11:30:58;;;;;;;20.20;11.63;;;3.20;99.90;;;4.33;100.00;-19874.34;5010533;28;20229;-63
2022/01/26 11:33:28;;;;;;;23.83;11.33;;;3.30;99.90;;;4.35;100.00;-19875.03;5010918;28;20227;-63
2022/01/26 11:35:59;;;;;;;16.90;9.57;;;3.30;99.90;;;4.20;100.00;-19869.91;5011236;28;20256;-62